首页
METAR-TAF:

METAR-TAF

机场 :

奇瓦瓦州, 墨西哥

纬度: 28-42N, 经度: 105-58W, 海拔: 1360米

当前天气观测

该预报发布于1小时和12分钟前的21:40 UTC
风速13节,风向
温度 32°C
湿度 3%
气压 1015 hPa
能見度: 16.1公里
少量云层高于3000英尺
散云层高于8000英尺
多云层高于20000英尺

METAR: MMCU 172140Z 19013KT 10SM FEW030 SCT080 BKN200 32/M20 A2998 RMK 8/178

时间: 16:52 (22:52 UTC)

预报

该预报发布于6小时和15分钟前的16:37 UTC
预报有效从17日的 18点(UTC)到 18日的 18点(UTC)
风速10节,风向西转西南
能見度: 10公里
散云层高于8000英尺
多云层高于22000英尺
短暂存在
从 17日的 23点(UTC)到 18日的 03点(UTC)
风速15节,风向西转西南
从 18日的 0500点(UTC)
风速10节,风向西
能見度: 10公里
天空无云
成为
从 18日的 06点(UTC)到 18日的 07点(UTC)
风速4节,风向南转西南
从 18日的 1600点(UTC)
风速8节,风向西转西南
能見度: 10公里
天空无云

TAF: MMCU 171637Z 1718/1818 25010KT P6SM SCT080 BKN220 TEMPO 1723/1803 25015KT FM180500 28010KT P6SM SKC BECMG 1806/1807 20004KT FM181600 25008KT P6SM SKC

超过4000个机场的气象观测和天气预报(METAR&TAF报告)。

可查询的气象台以黄色和红色小点在地图上表示。

将鼠标移到小点上方,可查看气象台名称。

然后点击查看天气观测和预报。

如需切换地图:点击带黑十字的绿色按钮放大地图;点击带横线的绿色按钮缩小地图;或者点击绿色箭头查看邻近地区的地图。


METAR-TAF: